sensor_id;sensor_type;location;lat;lon;timestamp;P1;durP1;ratioP1;P2;durP2;ratioP2
36001;SDS011;22070;50.922;5.430;2022-10-17T00:01:21;17.20;;;10.97;;
36001;SDS011;22070;50.922;5.430;2022-10-17T00:03:46;16.60;;;10.83;;
36001;SDS011;22070;50.922;5.430;2022-10-17T00:06:13;13.32;;;8.13;;
36001;SDS011;22070;50.922;5.430;2022-10-17T00:08:40;17.38;;;11.05;;
36001;SDS011;22070;50.922;5.430;2022-10-17T00:11:08;15.25;;;11.07;;
36001;SDS011;22070;50.922;5.430;2022-10-17T00:13:38;16.45;;;10.98;;
36001;SDS011;22070;50.922;5.430;2022-10-17T00:16:03;19.17;;;10.65;;
36001;SDS011;22070;50.922;5.430;2022-10-17T00:18:30;18.98;;;11.23;;
36001;SDS011;22070;50.922;5.430;2022-10-17T00:20:55;22.67;;;11.57;;
36001;SDS011;22070;50.922;5.430;2022-10-17T00:23:21;16.93;;;11.30;;
36001;SDS011;22070;50.922;5.430;2022-10-17T00:25:46;15.40;;;12.00;;
36001;SDS011;22070;50.922;5.430;2022-10-17T00:28:21;20.73;;;10.98;;
36001;SDS011;22070;50.922;5.430;2022-10-17T00:30:53;18.63;;;10.80;;
36001;SDS011;22070;50.922;5.430;2022-10-17T00:33:23;20.30;;;12.07;;
36001;SDS011;22070;50.922;5.430;2022-10-17T00:35:49;17.17;;;10.97;;
36001;SDS011;22070;50.922;5.430;2022-10-17T00:38:14;11.60;;;10.20;;
36001;SDS011;22070;50.922;5.430;2022-10-17T00:40:40;21.93;;;11.60;;
36001;SDS011;22070;50.922;5.430;2022-10-17T00:43:12;8.88;;;7.25;;
36001;SDS011;22070;50.922;5.430;2022-10-17T00:45:41;14.18;;;9.23;;
36001;SDS011;22070;50.922;5.430;2022-10-17T00:48:06;14.90;;;10.13;;
36001;SDS011;22070;50.922;5.430;2022-10-17T00:50:35;16.27;;;9.98;;
36001;SDS011;22070;50.922;5.430;2022-10-17T00:53:03;18.70;;;10.52;;
36001;SDS011;22070;50.922;5.430;2022-10-17T00:55:33;15.40;;;10.77;;
36001;SDS011;22070;50.922;5.430;2022-10-17T00:58:01;14.30;;;10.50;;
36001;SDS011;22070;50.922;5.430;2022-10-17T01:00:28;14.02;;;10.35;;
36001;SDS011;22070;50.922;5.430;2022-10-17T01:02:54;16.90;;;10.63;;
36001;SDS011;22070;50.922;5.430;2022-10-17T01:05:20;16.70;;;10.38;;
36001;SDS011;22070;50.922;5.430;2022-10-17T01:07:46;13.55;;;10.18;;
36001;SDS011;22070;50.922;5.430;2022-10-17T01:10:13;15.55;;;10.25;;
36001;SDS011;22070;50.922;5.430;2022-10-17T01:12:41;13.02;;;9.68;;
36001;SDS011;22070;50.922;5.430;2022-10-17T01:20:40;17.55;;;10.55;;
36001;SDS011;22070;50.922;5.430;2022-10-17T01:23:16;13.82;;;10.23;;
36001;SDS011;22070;50.922;5.430;2022-10-17T01:26:13;19.25;;;10.45;;
36001;SDS011;22070;50.922;5.430;2022-10-17T01:31:13;19.73;;;9.95;;
36001;SDS011;22070;50.922;5.430;2022-10-17T01:33:56;17.05;;;9.95;;
36001;SDS011;22070;50.922;5.430;2022-10-17T01:36:34;16.13;;;10.65;;
36001;SDS011;22070;50.922;5.430;2022-10-17T01:42:17;19.58;;;10.32;;
36001;SDS011;22070;50.922;5.430;2022-10-17T01:47:20;13.77;;;10.02;;
36001;SDS011;22070;50.922;5.430;2022-10-17T01:49:50;20.33;;;11.23;;
36001;SDS011;22070;50.922;5.430;2022-10-17T01:52:19;20.17;;;11.65;;
36001;SDS011;22070;50.922;5.430;2022-10-17T01:54:57;15.93;;;11.10;;
36001;SDS011;22070;50.922;5.430;2022-10-17T02:02:47;18.42;;;10.93;;
36001;SDS011;22070;50.922;5.430;2022-10-17T02:07:52;22.80;;;11.20;;
36001;SDS011;22070;50.922;5.430;2022-10-17T02:10:20;19.05;;;11.32;;
36001;SDS011;22070;50.922;5.430;2022-10-17T02:13:18;21.63;;;12.10;;
36001;SDS011;22070;50.922;5.430;2022-10-17T02:16:07;21.08;;;11.13;;
36001;SDS011;22070;50.922;5.430;2022-10-17T02:24:41;26.45;;;12.13;;
36001;SDS011;22070;50.922;5.430;2022-10-17T02:27:24;24.05;;;11.52;;
36001;SDS011;22070;50.922;5.430;2022-10-17T02:35:27;18.25;;;12.02;;
36001;SDS011;22070;50.922;5.430;2022-10-17T02:37:56;19.33;;;12.10;;
36001;SDS011;22070;50.922;5.430;2022-10-17T02:40:23;20.63;;;11.25;;
36001;SDS011;22070;50.922;5.430;2022-10-17T02:42:51;18.45;;;11.70;;
36001;SDS011;22070;50.922;5.430;2022-10-17T02:45:19;18.73;;;11.38;;
36001;SDS011;22070;50.922;5.430;2022-10-17T02:51:05;19.98;;;11.90;;
36001;SDS011;22070;50.922;5.430;2022-10-17T02:56:15;16.90;;;10.73;;
36001;SDS011;22070;50.922;5.430;2022-10-17T02:58:44;20.30;;;11.20;;
36001;SDS011;22070;50.922;5.430;2022-10-17T03:01:17;18.70;;;10.20;;
36001;SDS011;22070;50.922;5.430;2022-10-17T03:03:43;22.58;;;10.43;;
36001;SDS011;22070;50.922;5.430;2022-10-17T03:06:09;19.17;;;10.50;;
36001;SDS011;22070;50.922;5.430;2022-10-17T03:08:35;15.27;;;9.73;;
36001;SDS011;22070;50.922;5.430;2022-10-17T03:11:00;13.00;;;8.90;;
36001;SDS011;22070;50.922;5.430;2022-10-17T03:13:27;19.70;;;10.50;;
36001;SDS011;22070;50.922;5.430;2022-10-17T03:15:55;24.80;;;10.57;;
36001;SDS011;22070;50.922;5.430;2022-10-17T03:18:21;19.27;;;10.60;;
36001;SDS011;22070;50.922;5.430;2022-10-17T03:20:47;17.67;;;10.13;;
36001;SDS011;22070;50.922;5.430;2022-10-17T03:23:12;18.97;;;10.37;;
36001;SDS011;22070;50.922;5.430;2022-10-17T03:25:38;21.63;;;10.40;;
36001;SDS011;22070;50.922;5.430;2022-10-17T03:28:04;18.97;;;11.50;;
36001;SDS011;22070;50.922;5.430;2022-10-17T03:30:30;13.93;;;7.67;;
36001;SDS011;22070;50.922;5.430;2022-10-17T03:32:56;22.30;;;9.85;;
36001;SDS011;22070;50.922;5.430;2022-10-17T03:35:23;15.50;;;9.20;;
36001;SDS011;22070;50.922;5.430;2022-10-17T03:37:49;18.17;;;9.52;;
36001;SDS011;22070;50.922;5.430;2022-10-17T03:40:14;17.77;;;9.38;;
36001;SDS011;22070;50.922;5.430;2022-10-17T03:42:40;14.27;;;9.40;;
36001;SDS011;22070;50.922;5.430;2022-10-17T03:45:06;13.80;;;9.80;;
36001;SDS011;22070;50.922;5.430;2022-10-17T03:47:32;15.10;;;9.40;;
36001;SDS011;22070;50.922;5.430;2022-10-17T03:49:57;13.70;;;9.30;;
36001;SDS011;22070;50.922;5.430;2022-10-17T03:52:23;13.57;;;9.33;;
36001;SDS011;22070;50.922;5.430;2022-10-17T03:54:49;17.07;;;9.30;;
36001;SDS011;22070;50.922;5.430;2022-10-17T03:57:15;19.60;;;9.20;;
36001;SDS011;22070;50.922;5.430;2022-10-17T03:59:42;17.55;;;9.43;;
36001;SDS011;22070;50.922;5.430;2022-10-17T04:02:07;17.53;;;9.87;;
36001;SDS011;22070;50.922;5.430;2022-10-17T04:04:33;18.20;;;9.82;;
36001;SDS011;22070;50.922;5.430;2022-10-17T04:06:59;15.90;;;10.13;;
36001;SDS011;22070;50.922;5.430;2022-10-17T04:09:25;20.63;;;9.90;;
36001;SDS011;22070;50.922;5.430;2022-10-17T04:11:50;16.97;;;10.40;;
36001;SDS011;22070;50.922;5.430;2022-10-17T04:14:16;17.90;;;8.97;;
36001;SDS011;22070;50.922;5.430;2022-10-17T04:16:41;16.17;;;10.53;;
36001;SDS011;22070;50.922;5.430;2022-10-17T04:19:09;15.18;;;8.88;;
36001;SDS011;22070;50.922;5.430;2022-10-17T04:21:36;21.52;;;10.13;;
36001;SDS011;22070;50.922;5.430;2022-10-17T04:24:02;13.43;;;9.23;;
36001;SDS011;22070;50.922;5.430;2022-10-17T04:26:28;20.93;;;9.90;;
36001;SDS011;22070;50.922;5.430;2022-10-17T04:28:54;13.90;;;9.53;;
36001;SDS011;22070;50.922;5.430;2022-10-17T04:31:20;15.82;;;9.75;;
36001;SDS011;22070;50.922;5.430;2022-10-17T04:33:49;14.23;;;9.53;;
36001;SDS011;22070;50.922;5.430;2022-10-17T04:36:15;14.00;;;8.95;;
36001;SDS011;22070;50.922;5.430;2022-10-17T04:38:43;17.38;;;9.23;;
36001;SDS011;22070;50.922;5.430;2022-10-17T04:41:10;15.03;;;9.37;;
36001;SDS011;22070;50.922;5.430;2022-10-17T04:43:37;10.98;;;9.05;;
36001;SDS011;22070;50.922;5.430;2022-10-17T04:46:08;11.20;;;8.30;;
36001;SDS011;22070;50.922;5.430;2022-10-17T04:48:36;14.50;;;8.02;;
36001;SDS011;22070;50.922;5.430;2022-10-17T04:51:03;18.77;;;8.80;;
36001;SDS011;22070;50.922;5.430;2022-10-17T04:53:31;12.70;;;7.93;;
36001;SDS011;22070;50.922;5.430;2022-10-17T04:55:58;14.07;;;8.07;;
36001;SDS011;22070;50.922;5.430;2022-10-17T04:58:24;10.97;;;7.97;;
36001;SDS011;22070;50.922;5.430;2022-10-17T05:00:49;11.20;;;7.30;;
36001;SDS011;22070;50.922;5.430;2022-10-17T05:03:15;12.90;;;7.30;;
36001;SDS011;22070;50.922;5.430;2022-10-17T05:05:41;16.23;;;7.23;;
36001;SDS011;22070;50.922;5.430;2022-10-17T05:08:08;11.83;;;6.47;;
36001;SDS011;22070;50.922;5.430;2022-10-17T05:10:38;14.77;;;6.85;;
36001;SDS011;22070;50.922;5.430;2022-10-17T05:13:06;8.43;;;5.55;;
36001;SDS011;22070;50.922;5.430;2022-10-17T05:15:33;17.38;;;6.40;;
36001;SDS011;22070;50.922;5.430;2022-10-17T05:17:59;13.45;;;6.25;;
36001;SDS011;22070;50.922;5.430;2022-10-17T05:20:24;6.53;;;5.20;;
36001;SDS011;22070;50.922;5.430;2022-10-17T05:22:50;9.77;;;5.27;;
36001;SDS011;22070;50.922;5.430;2022-10-17T05:25:16;13.40;;;5.57;;
36001;SDS011;22070;50.922;5.430;2022-10-17T05:27:42;6.33;;;5.30;;
36001;SDS011;22070;50.922;5.430;2022-10-17T05:30:07;9.60;;;5.00;;
36001;SDS011;22070;50.922;5.430;2022-10-17T05:32:34;9.60;;;5.30;;
36001;SDS011;22070;50.922;5.430;2022-10-17T05:34:59;6.30;;;5.67;;
36001;SDS011;22070;50.922;5.430;2022-10-17T05:37:25;8.47;;;5.70;;
36001;SDS011;22070;50.922;5.430;2022-10-17T05:39:52;9.73;;;5.97;;
36001;SDS011;22070;50.922;5.430;2022-10-17T05:42:18;11.13;;;5.93;;
36001;SDS011;22070;50.922;5.430;2022-10-17T05:44:44;10.40;;;6.23;;
36001;SDS011;22070;50.922;5.430;2022-10-17T05:47:10;15.73;;;6.73;;
36001;SDS011;22070;50.922;5.430;2022-10-17T05:49:35;13.43;;;6.60;;
36001;SDS011;22070;50.922;5.430;2022-10-17T05:52:01;15.20;;;7.63;;
36001;SDS011;22070;50.922;5.430;2022-10-17T05:54:27;12.87;;;6.00;;
36001;SDS011;22070;50.922;5.430;2022-10-17T05:56:53;12.33;;;6.73;;
36001;SDS011;22070;50.922;5.430;2022-10-17T06:01:45;12.97;;;6.73;;
36001;SDS011;22070;50.922;5.430;2022-10-17T06:04:11;9.33;;;5.07;;
36001;SDS011;22070;50.922;5.430;2022-10-17T06:06:37;14.37;;;6.60;;
36001;SDS011;22070;50.922;5.430;2022-10-17T06:09:03;14.63;;;7.28;;
36001;SDS011;22070;50.922;5.430;2022-10-17T06:11:29;12.95;;;6.15;;
36001;SDS011;22070;50.922;5.430;2022-10-17T06:13:55;8.87;;;5.47;;
36001;SDS011;22070;50.922;5.430;2022-10-17T06:16:21;6.30;;;4.67;;
36001;SDS011;22070;50.922;5.430;2022-10-17T06:18:47;5.53;;;3.83;;
36001;SDS011;22070;50.922;5.430;2022-10-17T06:21:14;14.13;;;5.50;;
36001;SDS011;22070;50.922;5.430;2022-10-17T06:23:42;8.90;;;4.72;;
36001;SDS011;22070;50.922;5.430;2022-10-17T06:26:08;12.67;;;5.40;;
36001;SDS011;22070;50.922;5.430;2022-10-17T06:28:34;12.33;;;5.20;;
36001;SDS011;22070;50.922;5.430;2022-10-17T06:31:07;11.90;;;4.97;;
36001;SDS011;22070;50.922;5.430;2022-10-17T06:33:35;12.95;;;5.10;;
36001;SDS011;22070;50.922;5.430;2022-10-17T06:36:02;8.85;;;4.75;;
36001;SDS011;22070;50.922;5.430;2022-10-17T06:38:28;6.70;;;4.75;;
36001;SDS011;22070;50.922;5.430;2022-10-17T06:41:01;7.43;;;4.20;;
36001;SDS011;22070;50.922;5.430;2022-10-17T06:43:32;13.52;;;5.00;;
36001;SDS011;22070;50.922;5.430;2022-10-17T06:45:59;10.05;;;4.10;;
36001;SDS011;22070;50.922;5.430;2022-10-17T06:48:25;10.77;;;4.40;;
36001;SDS011;22070;50.922;5.430;2022-10-17T06:50:50;7.97;;;3.70;;
36001;SDS011;22070;50.922;5.430;2022-10-17T06:53:16;16.50;;;4.80;;
36001;SDS011;22070;50.922;5.430;2022-10-17T06:55:41;9.40;;;4.07;;
36001;SDS011;22070;50.922;5.430;2022-10-17T06:58:07;7.30;;;3.83;;
36001;SDS011;22070;50.922;5.430;2022-10-17T07:00:33;10.00;;;4.67;;
36001;SDS011;22070;50.922;5.430;2022-10-17T07:02:59;9.87;;;3.83;;
36001;SDS011;22070;50.922;5.430;2022-10-17T07:05:24;4.30;;;3.83;;
36001;SDS011;22070;50.922;5.430;2022-10-17T07:07:50;6.27;;;4.17;;
36001;SDS011;22070;50.922;5.430;2022-10-17T07:10:15;11.20;;;4.13;;
36001;SDS011;22070;50.922;5.430;2022-10-17T07:12:41;9.90;;;4.20;;
36001;SDS011;22070;50.922;5.430;2022-10-17T07:15:08;15.02;;;4.85;;
36001;SDS011;22070;50.922;5.430;2022-10-17T07:17:34;13.27;;;4.07;;
36001;SDS011;22070;50.922;5.430;2022-10-17T07:20:00;5.83;;;3.80;;
36001;SDS011;22070;50.922;5.430;2022-10-17T07:22:25;11.43;;;3.53;;
36001;SDS011;22070;50.922;5.430;2022-10-17T07:24:51;7.87;;;4.17;;
36001;SDS011;22070;50.922;5.430;2022-10-17T07:27:17;6.60;;;4.00;;
36001;SDS011;22070;50.922;5.430;2022-10-17T07:29:42;13.10;;;4.30;;
36001;SDS011;22070;50.922;5.430;2022-10-17T07:32:08;7.37;;;3.70;;
36001;SDS011;22070;50.922;5.430;2022-10-17T07:34:34;8.40;;;4.37;;
36001;SDS011;22070;50.922;5.430;2022-10-17T07:37:00;5.05;;;3.75;;
36001;SDS011;22070;50.922;5.430;2022-10-17T07:39:26;7.10;;;3.78;;
36001;SDS011;22070;50.922;5.430;2022-10-17T07:41:52;9.87;;;3.40;;
36001;SDS011;22070;50.922;5.430;2022-10-17T07:44:18;7.53;;;3.90;;
36001;SDS011;22070;50.922;5.430;2022-10-17T07:46:43;11.43;;;3.30;;
36001;SDS011;22070;50.922;5.430;2022-10-17T07:49:09;6.77;;;3.67;;
36001;SDS011;22070;50.922;5.430;2022-10-17T07:51:34;6.87;;;3.70;;
36001;SDS011;22070;50.922;5.430;2022-10-17T07:54:00;6.03;;;3.73;;
36001;SDS011;22070;50.922;5.430;2022-10-17T07:56:26;10.33;;;3.93;;
36001;SDS011;22070;50.922;5.430;2022-10-17T07:58:53;8.82;;;3.38;;
36001;SDS011;22070;50.922;5.430;2022-10-17T08:01:19;4.57;;;3.53;;
36001;SDS011;22070;50.922;5.430;2022-10-17T08:03:45;9.53;;;4.00;;
36001;SDS011;22070;50.922;5.430;2022-10-17T08:06:12;6.45;;;3.65;;
36001;SDS011;22070;50.922;5.430;2022-10-17T08:08:38;8.07;;;3.60;;
36001;SDS011;22070;50.922;5.430;2022-10-17T08:11:06;5.57;;;3.43;;
36001;SDS011;22070;50.922;5.430;2022-10-17T08:13:33;6.80;;;3.80;;
36001;SDS011;22070;50.922;5.430;2022-10-17T08:16:04;8.77;;;3.83;;
36001;SDS011;22070;50.922;5.430;2022-10-17T08:18:32;7.15;;;3.47;;
36001;SDS011;22070;50.922;5.430;2022-10-17T08:20:59;12.10;;;3.35;;
36001;SDS011;22070;50.922;5.430;2022-10-17T08:23:26;9.43;;;3.60;;
36001;SDS011;22070;50.922;5.430;2022-10-17T08:25:52;6.65;;;3.92;;
36001;SDS011;22070;50.922;5.430;2022-10-17T08:28:17;8.97;;;3.93;;
36001;SDS011;22070;50.922;5.430;2022-10-17T08:30:43;9.13;;;4.30;;
36001;SDS011;22070;50.922;5.430;2022-10-17T08:33:08;5.30;;;3.37;;
36001;SDS011;22070;50.922;5.430;2022-10-17T08:35:34;7.73;;;3.83;;
36001;SDS011;22070;50.922;5.430;2022-10-17T08:38:00;6.77;;;3.83;;
36001;SDS011;22070;50.922;5.430;2022-10-17T08:40:27;8.27;;;3.63;;
36001;SDS011;22070;50.922;5.430;2022-10-17T08:45:59;4.28;;;3.53;;
36001;SDS011;22070;50.922;5.430;2022-10-17T08:48:27;9.45;;;4.47;;
36001;SDS011;22070;50.922;5.430;2022-10-17T08:50:58;10.23;;;4.25;;
36001;SDS011;22070;50.922;5.430;2022-10-17T08:58:47;17.40;;;3.65;;
36001;SDS011;22070;50.922;5.430;2022-10-17T09:07:01;5.20;;;3.70;;
36001;SDS011;22070;50.922;5.430;2022-10-17T09:09:45;7.88;;;3.53;;
36001;SDS011;22070;50.922;5.430;2022-10-17T09:12:17;8.13;;;3.85;;
36001;SDS011;22070;50.922;5.430;2022-10-17T09:22:42;9.38;;;4.20;;
36001;SDS011;22070;50.922;5.430;2022-10-17T09:25:15;6.07;;;4.20;;
36001;SDS011;22070;50.922;5.430;2022-10-17T09:27:46;8.43;;;3.80;;
36001;SDS011;22070;50.922;5.430;2022-10-17T09:30:55;8.18;;;3.97;;
36001;SDS011;22070;50.922;5.430;2022-10-17T09:33:37;8.95;;;4.25;;
36001;SDS011;22070;50.922;5.430;2022-10-17T09:36:04;6.95;;;3.78;;
36001;SDS011;22070;50.922;5.430;2022-10-17T09:38:41;5.47;;;3.80;;
36001;SDS011;22070;50.922;5.430;2022-10-17T09:41:35;8.48;;;4.00;;
36001;SDS011;22070;50.922;5.430;2022-10-17T09:46:40;8.38;;;3.92;;
36001;SDS011;22070;50.922;5.430;2022-10-17T09:49:18;10.20;;;4.10;;
36001;SDS011;22070;50.922;5.430;2022-10-17T09:51:50;6.85;;;4.72;;
36001;SDS011;22070;50.922;5.430;2022-10-17T09:54:19;9.10;;;4.77;;
36001;SDS011;22070;50.922;5.430;2022-10-17T09:59:30;7.97;;;5.20;;
36001;SDS011;22070;50.922;5.430;2022-10-17T10:04:31;9.98;;;4.57;;
36001;SDS011;22070;50.922;5.430;2022-10-17T10:07:01;12.33;;;5.00;;
36001;SDS011;22070;50.922;5.430;2022-10-17T10:09:29;9.98;;;5.30;;
36001;SDS011;22070;50.922;5.430;2022-10-17T10:11:57;7.40;;;5.10;;
36001;SDS011;22070;50.922;5.430;2022-10-17T10:14:32;8.63;;;5.57;;
36001;SDS011;22070;50.922;5.430;2022-10-17T10:17:00;12.55;;;5.85;;
36001;SDS011;22070;50.922;5.430;2022-10-17T10:19:50;8.15;;;6.00;;
36001;SDS011;22070;50.922;5.430;2022-10-17T10:22:17;14.65;;;5.63;;
36001;SDS011;22070;50.922;5.430;2022-10-17T10:24:44;12.70;;;6.57;;
36001;SDS011;22070;50.922;5.430;2022-10-17T10:27:14;15.30;;;5.23;;
36001;SDS011;22070;50.922;5.430;2022-10-17T10:29:42;11.32;;;5.35;;
36001;SDS011;22070;50.922;5.430;2022-10-17T10:32:27;10.23;;;6.05;;
36001;SDS011;22070;50.922;5.430;2022-10-17T10:34:56;11.43;;;5.30;;
36001;SDS011;22070;50.922;5.430;2022-10-17T10:37:44;9.95;;;5.60;;
36001;SDS011;22070;50.922;5.430;2022-10-17T10:40:14;14.13;;;5.03;;
36001;SDS011;22070;50.922;5.430;2022-10-17T10:42:45;11.07;;;4.60;;
36001;SDS011;22070;50.922;5.430;2022-10-17T10:48:00;10.88;;;4.70;;
36001;SDS011;22070;50.922;5.430;2022-10-17T10:50:47;8.95;;;4.68;;
36001;SDS011;22070;50.922;5.430;2022-10-17T10:59:04;8.07;;;4.00;;
36001;SDS011;22070;50.922;5.430;2022-10-17T11:06:51;12.70;;;3.90;;
36001;SDS011;22070;50.922;5.430;2022-10-17T11:12:27;9.35;;;4.20;;
36001;SDS011;22070;50.922;5.430;2022-10-17T11:15:02;7.30;;;3.15;;
36001;SDS011;22070;50.922;5.430;2022-10-17T11:17:50;8.88;;;3.63;;
36001;SDS011;22070;50.922;5.430;2022-10-17T11:20:26;4.63;;;3.33;;
36001;SDS011;22070;50.922;5.430;2022-10-17T11:25:47;6.95;;;4.32;;
36001;SDS011;22070;50.922;5.430;2022-10-17T11:28:16;11.95;;;4.53;;
36001;SDS011;22070;50.922;5.430;2022-10-17T11:30:59;10.45;;;4.70;;
36001;SDS011;22070;50.922;5.430;2022-10-17T11:36:22;6.97;;;3.50;;
36001;SDS011;22070;50.922;5.430;2022-10-17T11:41:42;11.40;;;3.38;;
36001;SDS011;22070;50.922;5.430;2022-10-17T11:47:02;7.25;;;4.18;;
36001;SDS011;22070;50.922;5.430;2022-10-17T11:49:51;6.40;;;4.00;;
36001;SDS011;22070;50.922;5.430;2022-10-17T11:55:28;9.13;;;3.38;;
36001;SDS011;22070;50.922;5.430;2022-10-17T12:03:51;8.93;;;3.85;;
36001;SDS011;22070;50.922;5.430;2022-10-17T12:12:06;8.60;;;3.30;;
36001;SDS011;22070;50.922;5.430;2022-10-17T12:16:57;9.90;;;3.33;;
36001;SDS011;22070;50.922;5.430;2022-10-17T12:19:25;5.32;;;3.28;;
36001;SDS011;22070;50.922;5.430;2022-10-17T12:22:02;7.15;;;3.53;;
36001;SDS011;22070;50.922;5.430;2022-10-17T12:24:51;7.63;;;3.10;;
36001;SDS011;22070;50.922;5.430;2022-10-17T12:30:13;4.78;;;3.50;;
36001;SDS011;22070;50.922;5.430;2022-10-17T12:33:01;7.40;;;3.35;;
36001;SDS011;22070;50.922;5.430;2022-10-17T12:35:42;7.13;;;3.42;;
36001;SDS011;22070;50.922;5.430;2022-10-17T12:45:58;5.43;;;3.70;;
36001;SDS011;22070;50.922;5.430;2022-10-17T12:51:04;8.60;;;3.47;;
36001;SDS011;22070;50.922;5.430;2022-10-17T12:56:37;5.22;;;3.40;;
36001;SDS011;22070;50.922;5.430;2022-10-17T12:59:14;9.73;;;3.80;;
36001;SDS011;22070;50.922;5.430;2022-10-17T13:01:58;7.15;;;3.10;;
36001;SDS011;22070;50.922;5.430;2022-10-17T13:04:26;10.43;;;3.55;;
36001;SDS011;22070;50.922;5.430;2022-10-17T13:06:54;10.75;;;3.72;;
36001;SDS011;22070;50.922;5.430;2022-10-17T13:09:29;8.32;;;3.53;;
36001;SDS011;22070;50.922;5.430;2022-10-17T13:12:02;17.10;;;4.07;;
36001;SDS011;22070;50.922;5.430;2022-10-17T13:14:30;6.93;;;3.42;;
36001;SDS011;22070;50.922;5.430;2022-10-17T13:19:28;9.23;;;4.35;;
36001;SDS011;22070;50.922;5.430;2022-10-17T13:22:11;9.70;;;4.00;;
36001;SDS011;22070;50.922;5.430;2022-10-17T13:24:47;12.85;;;3.85;;
36001;SDS011;22070;50.922;5.430;2022-10-17T13:27:24;7.97;;;3.70;;
36001;SDS011;22070;50.922;5.430;2022-10-17T13:29:55;9.30;;;4.13;;
36001;SDS011;22070;50.922;5.430;2022-10-17T13:32:22;10.93;;;3.85;;
36001;SDS011;22070;50.922;5.430;2022-10-17T13:37:35;8.75;;;4.35;;
36001;SDS011;22070;50.922;5.430;2022-10-17T13:40:03;8.10;;;4.18;;
36001;SDS011;22070;50.922;5.430;2022-10-17T13:45:01;12.93;;;4.53;;
36001;SDS011;22070;50.922;5.430;2022-10-17T13:47:28;7.75;;;3.13;;
36001;SDS011;22070;50.922;5.430;2022-10-17T13:49:57;10.93;;;4.60;;
36001;SDS011;22070;50.922;5.430;2022-10-17T13:52:24;11.32;;;4.55;;
36001;SDS011;22070;50.922;5.430;2022-10-17T13:54:52;10.18;;;4.32;;
36001;SDS011;22070;50.922;5.430;2022-10-17T13:59:57;13.25;;;4.70;;
36001;SDS011;22070;50.922;5.430;2022-10-17T14:02:30;11.63;;;4.88;;
36001;SDS011;22070;50.922;5.430;2022-10-17T14:05:07;11.20;;;4.82;;
36001;SDS011;22070;50.922;5.430;2022-10-17T14:10:18;14.48;;;5.93;;
36001;SDS011;22070;50.922;5.430;2022-10-17T14:12:47;8.82;;;5.20;;
36001;SDS011;22070;50.922;5.430;2022-10-17T14:15:14;14.95;;;5.03;;
36001;SDS011;22070;50.922;5.430;2022-10-17T14:17:40;16.27;;;6.17;;
36001;SDS011;22070;50.922;5.430;2022-10-17T14:20:15;11.57;;;5.43;;
36001;SDS011;22070;50.922;5.430;2022-10-17T14:22:42;11.23;;;5.22;;
36001;SDS011;22070;50.922;5.430;2022-10-17T14:30:39;14.55;;;6.28;;
36001;SDS011;22070;50.922;5.430;2022-10-17T14:33:14;15.90;;;9.55;;
36001;SDS011;22070;50.922;5.430;2022-10-17T14:35:50;13.55;;;6.40;;
36001;SDS011;22070;50.922;5.430;2022-10-17T14:38:17;10.45;;;6.18;;
36001;SDS011;22070;50.922;5.430;2022-10-17T14:40:57;13.57;;;6.20;;
36001;SDS011;22070;50.922;5.430;2022-10-17T14:43:29;11.15;;;6.25;;
36001;SDS011;22070;50.922;5.430;2022-10-17T14:48:22;51.28;;;7.63;;
36001;SDS011;22070;50.922;5.430;2022-10-17T14:53:35;12.30;;;5.72;;
36001;SDS011;22070;50.922;5.430;2022-10-17T14:56:03;8.73;;;5.57;;
36001;SDS011;22070;50.922;5.430;2022-10-17T14:58:44;11.70;;;4.95;;
36001;SDS011;22070;50.922;5.430;2022-10-17T15:01:10;10.67;;;5.63;;
36001;SDS011;22070;50.922;5.430;2022-10-17T15:03:35;9.27;;;5.40;;
36001;SDS011;22070;50.922;5.430;2022-10-17T15:06:08;10.80;;;5.60;;
36001;SDS011;22070;50.922;5.430;2022-10-17T15:08:44;8.30;;;5.57;;
36001;SDS011;22070;50.922;5.430;2022-10-17T15:11:10;11.47;;;6.40;;
36001;SDS011;22070;50.922;5.430;2022-10-17T15:13:36;12.80;;;6.13;;
36001;SDS011;22070;50.922;5.430;2022-10-17T15:16:14;14.05;;;6.95;;
36001;SDS011;22070;50.922;5.430;2022-10-17T15:18:45;9.82;;;6.07;;
36001;SDS011;22070;50.922;5.430;2022-10-17T15:21:12;10.27;;;6.20;;
36001;SDS011;22070;50.922;5.430;2022-10-17T15:23:38;13.07;;;6.82;;
36001;SDS011;22070;50.922;5.430;2022-10-17T15:26:12;11.93;;;5.85;;
36001;SDS011;22070;50.922;5.430;2022-10-17T15:28:53;13.60;;;5.80;;
36001;SDS011;22070;50.922;5.430;2022-10-17T15:31:20;12.77;;;6.00;;
36001;SDS011;22070;50.922;5.430;2022-10-17T15:33:47;14.63;;;6.15;;
36001;SDS011;22070;50.922;5.430;2022-10-17T15:38:54;10.88;;;5.68;;
36001;SDS011;22070;50.922;5.430;2022-10-17T15:41:25;13.27;;;5.78;;
36001;SDS011;22070;50.922;5.430;2022-10-17T15:43:51;9.85;;;5.35;;
36001;SDS011;22070;50.922;5.430;2022-10-17T15:46:18;6.60;;;5.17;;
36001;SDS011;22070;50.922;5.430;2022-10-17T15:48:55;8.25;;;5.18;;
36001;SDS011;22070;50.922;5.430;2022-10-17T15:51:25;9.77;;;5.22;;
36001;SDS011;22070;50.922;5.430;2022-10-17T15:53:50;7.23;;;4.97;;
36001;SDS011;22070;50.922;5.430;2022-10-17T15:56:23;6.90;;;4.50;;
36001;SDS011;22070;50.922;5.430;2022-10-17T15:58:56;8.48;;;4.70;;
36001;SDS011;22070;50.922;5.430;2022-10-17T16:01:25;6.35;;;4.90;;
36001;SDS011;22070;50.922;5.430;2022-10-17T16:03:53;7.38;;;4.45;;
36001;SDS011;22070;50.922;5.430;2022-10-17T16:06:20;7.88;;;4.80;;
36001;SDS011;22070;50.922;5.430;2022-10-17T16:08:46;8.38;;;4.68;;
36001;SDS011;22070;50.922;5.430;2022-10-17T16:11:15;9.50;;;4.15;;
36001;SDS011;22070;50.922;5.430;2022-10-17T16:13:47;5.03;;;3.92;;
36001;SDS011;22070;50.922;5.430;2022-10-17T16:16:16;4.78;;;4.00;;
36001;SDS011;22070;50.922;5.430;2022-10-17T16:18:42;8.67;;;4.13;;
36001;SDS011;22070;50.922;5.430;2022-10-17T16:21:09;7.13;;;4.20;;
36001;SDS011;22070;50.922;5.430;2022-10-17T16:23:37;4.82;;;3.92;;
36001;SDS011;22070;50.922;5.430;2022-10-17T16:26:02;11.90;;;3.97;;
36001;SDS011;22070;50.922;5.430;2022-10-17T16:28:28;6.40;;;3.77;;
36001;SDS011;22070;50.922;5.430;2022-10-17T16:30:54;7.27;;;4.40;;
36001;SDS011;22070;50.922;5.430;2022-10-17T16:33:19;8.30;;;4.20;;
36001;SDS011;22070;50.922;5.430;2022-10-17T16:35:45;7.93;;;3.90;;
36001;SDS011;22070;50.922;5.430;2022-10-17T16:38:13;6.95;;;4.25;;
36001;SDS011;22070;50.922;5.430;2022-10-17T16:40:38;8.27;;;4.30;;
36001;SDS011;22070;50.922;5.430;2022-10-17T16:43:05;5.20;;;3.47;;
36001;SDS011;22070;50.922;5.430;2022-10-17T16:45:31;8.32;;;4.00;;
36001;SDS011;22070;50.922;5.430;2022-10-17T16:47:56;7.47;;;3.90;;
36001;SDS011;22070;50.922;5.430;2022-10-17T16:50:22;6.40;;;3.97;;
36001;SDS011;22070;50.922;5.430;2022-10-17T16:52:48;7.30;;;4.20;;
36001;SDS011;22070;50.922;5.430;2022-10-17T16:55:14;7.53;;;3.87;;
36001;SDS011;22070;50.922;5.430;2022-10-17T16:57:42;7.68;;;4.10;;
36001;SDS011;22070;50.922;5.430;2022-10-17T17:00:09;6.05;;;3.90;;
36001;SDS011;22070;50.922;5.430;2022-10-17T17:02:36;5.80;;;3.85;;
36001;SDS011;22070;50.922;5.430;2022-10-17T17:05:02;6.70;;;3.60;;
36001;SDS011;22070;50.922;5.430;2022-10-17T17:07:28;4.67;;;3.47;;
36001;SDS011;22070;50.922;5.430;2022-10-17T17:09:54;5.23;;;2.73;;
36001;SDS011;22070;50.922;5.430;2022-10-17T17:12:20;4.38;;;2.97;;
36001;SDS011;22070;50.922;5.430;2022-10-17T17:14:46;4.13;;;2.85;;
36001;SDS011;22070;50.922;5.430;2022-10-17T17:17:12;3.70;;;2.40;;
36001;SDS011;22070;50.922;5.430;2022-10-17T17:19:38;3.93;;;2.60;;
36001;SDS011;22070;50.922;5.430;2022-10-17T17:22:03;10.17;;;2.60;;
36001;SDS011;22070;50.922;5.430;2022-10-17T17:24:29;2.67;;;2.30;;
36001;SDS011;22070;50.922;5.430;2022-10-17T17:26:55;8.80;;;2.60;;
36001;SDS011;22070;50.922;5.430;2022-10-17T17:29:21;3.17;;;2.30;;